Time;durP1;ratioP1;P1;durP2;ratioP2;P2;SDS_P1;SDS_P2;PMS_P1;PMS_P2;Temp;Humidity;BMP_temperature;BMP_pressure;BME280_temperature;BME280_humidity;BME280_pressure;Samples;Min_cycle;Max_cycle;Signal;HPM_P1;HPM_P2
2022/05/26 00:01:07;;;;;;;;;;;;;;;21.48;50.13;101625.84;7285496;19;153274;-54
2022/05/26 00:03:35;;;;;;;;;;;;;;;21.45;49.67;101632.03;7288327;19;152341;-54
2022/05/26 00:06:02;;;;;;;;;;;;;;;21.42;50.03;101627.88;7286771;19;153462;-54
2022/05/26 00:08:29;;;;;;;;;;;;;;;21.42;49.95;101641.09;7289371;19;153841;-54
2022/05/26 00:10:55;;;;;;;;;;;;;;;21.41;50.58;101643.06;7296168;19;151433;-54
2022/05/26 00:13:22;;;;;;;;;;;;;;;21.43;50.63;101635.16;7287623;19;153246;-53
2022/05/26 00:15:49;;;;;;;;;;;;;;;21.38;50.50;101640.00;7289764;19;151775;-54
2022/05/26 00:18:16;;;;;;;;;;;;;;;21.36;50.18;101645.91;7288877;19;153328;-54
2022/05/26 00:20:43;;;;;;;;;;;;;;;21.37;50.38;101638.31;7287864;19;154803;-53
2022/05/26 00:23:10;;;;;;;;;;;;;;;21.35;50.46;101651.84;7288305;19;151774;-53
2022/05/26 00:25:37;;;;;;;;;;;;;;;21.32;50.82;101642.03;7290277;19;152937;-53
2022/05/26 00:28:03;;;;;;;;;;;;;;;21.33;50.58;101632.47;7287408;19;154123;-54
2022/05/26 00:30:30;;;;;;;;;;;;;;;21.33;50.93;101646.53;7286960;19;151835;-54
2022/05/26 00:32:57;;;;;;;;;;;;;;;21.32;50.42;101650.47;7295313;19;153439;-54
2022/05/26 00:35:24;;;;;;;;;;;;;;;21.29;50.83;101651.91;7289240;19;152070;-54
2022/05/26 00:37:51;;;;;;;;;;;;;;;21.28;50.71;101657.81;7289217;19;152700;-53
2022/05/26 00:40:25;;;;;;;;;;;;;;;21.27;51.01;101656.97;7287961;19;153177;-54
2022/05/26 00:42:51;;;;;;;;;;;;;;;21.24;51.15;101660.38;7288326;19;151850;-55
2022/05/26 00:45:18;;;;;;;;;;;;;;;21.23;51.14;101667.13;7289143;19;152770;-54
2022/05/26 00:47:46;;;;;;;;;;;;;;;21.26;51.15;101674.97;7283892;19;153816;-53
2022/05/26 00:50:21;;;;;;;;;;;;;;;21.26;51.22;101671.31;7288522;19;151688;-54
2022/05/26 00:53:14;;;;;;;;;;;;;;;21.22;51.47;101664.59;7287630;19;153715;-54
2022/05/26 00:55:45;;;;;;;;;;;;;;;21.20;51.72;101669.69;7294320;19;153046;-54
2022/05/26 00:58:18;;;;;;;;;;;;;;;21.20;51.48;101664.91;7287682;19;152726;-54
2022/05/26 01:00:45;;;;;;;;;;;;;;;21.17;51.98;101665.50;7285926;19;153224;-54
2022/05/26 01:03:22;;;;;;;;;;;;;;;21.17;51.64;101673.06;7288135;19;151909;-54
2022/05/26 01:06:04;;;;;;;;;;;;;;;21.16;51.81;101675.06;7289029;19;153306;-53
2022/05/26 01:08:37;;;;;;;;;;;;;;;21.15;51.60;101676.22;7284102;19;152884;-53
2022/05/26 01:11:05;;;;;;;;;;;;;;;21.14;51.91;101674.53;7286907;19;152125;-53
2022/05/26 01:13:35;;;;;;;;;;;;;;;21.13;51.77;101684.06;7287620;19;152994;-53
2022/05/26 01:16:15;;;;;;;;;;;;;;;21.13;51.68;101683.22;7284457;19;153940;-53
2022/05/26 01:18:55;;;;;;;;;;;;;;;21.13;51.92;101686.88;7295199;19;151489;-54
2022/05/26 01:21:27;;;;;;;;;;;;;;;21.12;51.63;101692.78;7284590;19;154085;-54
2022/05/26 01:24:14;;;;;;;;;;;;;;;21.12;51.50;101687.16;7287880;19;152583;-54
2022/05/26 01:27:00;;;;;;;;;;;;;;;21.10;52.02;101692.22;7286518;19;153123;-54
2022/05/26 01:29:51;;;;;;;;;;;;;;;21.09;52.10;101685.78;7286369;19;154337;-53
2022/05/26 01:32:24;;;;;;;;;;;;;;;21.10;52.00;101686.63;7283752;19;151766;-53
2022/05/26 01:35:01;;;;;;;;;;;;;;;21.07;52.08;101692.84;7287209;19;153351;-53
2022/05/26 01:37:30;;;;;;;;;;;;;;;21.06;52.00;101685.53;7286372;19;153857;-54
2022/05/26 01:40:22;;;;;;;;;;;;;;;21.04;51.99;101685.81;7286106;19;152111;-53
2022/05/26 01:43:00;;;;;;;;;;;;;;;21.05;51.89;101700.69;7293322;19;153258;-54
2022/05/26 01:45:29;;;;;;;;;;;;;;;21.03;52.25;101700.19;7287079;19;151438;-54
2022/05/26 01:47:59;;;;;;;;;;;;;;;21.03;52.15;101698.19;7286808;19;152633;-54
2022/05/26 01:50:42;;;;;;;;;;;;;;;21.03;52.53;101700.19;7285551;19;154055;-54
2022/05/26 01:53:12;;;;;;;;;;;;;;;21.00;52.54;101695.97;7287121;19;151915;-54
2022/05/26 01:55:43;;;;;;;;;;;;;;;21.00;52.50;101690.34;7286414;19;153625;-53
2022/05/26 01:58:12;;;;;;;;;;;;;;;21.03;52.60;101702.97;7285372;19;153253;-54
2022/05/26 02:00:39;;;;;;;;;;;;;;;21.01;52.32;101694.00;7285090;19;152023;-54
2022/05/26 02:03:11;;;;;;;;;;;;;;;21.00;52.43;101703.56;7293311;19;152573;-54
2022/05/26 02:05:47;;;;;;;;;;;;;;;21.00;52.80;101706.34;7286252;19;151936;-54
2022/05/26 02:08:17;;;;;;;;;;;;;;;20.96;53.06;101699.66;7285181;19;153685;-54
2022/05/26 02:10:47;;;;;;;;;;;;;;;20.96;53.15;101705.28;7284328;19;154093;-54
2022/05/26 02:13:20;;;;;;;;;;;;;;;20.95;52.97;101709.22;7284017;19;151535;-54
2022/05/26 02:15:53;;;;;;;;;;;;;;;20.92;52.93;101710.66;7286159;19;152713;-53
2022/05/26 02:18:22;;;;;;;;;;;;;;;20.92;53.08;101713.44;7283455;19;153879;-54
2022/05/26 02:20:54;;;;;;;;;;;;;;;20.92;53.15;101718.22;7285061;19;151834;-55
2022/05/26 02:23:42;;;;;;;;;;;;;;;20.91;53.40;101717.38;7285097;19;151756;-53
2022/05/26 02:26:08;;;;;;;;;;;;;;;20.94;53.54;101724.41;7294058;19;154150;-54
2022/05/26 02:31:22;;;;;;;;;;;;;;;20.91;53.45;101720.19;7290904;19;153281;-53
2022/05/26 02:33:51;;;;;;;;;;;;;;;20.89;53.46;101721.63;7292114;19;152068;-54
2022/05/26 02:36:18;;;;;;;;;;;;;;;20.89;53.79;101725.28;7291727;19;153848;-53
2022/05/26 02:38:46;;;;;;;;;;;;;;;20.89;53.51;101727.25;7291155;19;153896;-54
2022/05/26 02:41:13;;;;;;;;;;;;;;;20.88;53.71;101722.75;7291282;19;151750;-53
2022/05/26 02:43:40;;;;;;;;;;;;;;;20.89;53.53;101721.63;7291414;19;153063;-54
2022/05/26 02:46:26;;;;;;;;;;;;;;;20.88;53.94;101722.75;7291001;19;153620;-54
2022/05/26 02:48:53;;;;;;;;;;;;;;;20.87;53.85;101733.16;7297944;19;152205;-54
2022/05/26 02:51:30;;;;;;;;;;;;;;;20.85;53.80;101730.63;7291020;19;154217;-53
2022/05/26 02:53:57;;;;;;;;;;;;;;;20.85;53.73;101733.44;7292076;19;151478;-54
2022/05/26 02:56:33;;;;;;;;;;;;;;;20.85;53.67;101733.44;7291589;19;152801;-54
2022/05/26 02:59:14;;;;;;;;;;;;;;;20.84;53.71;101731.78;7290032;19;154021;-54
2022/05/26 03:01:54;;;;;;;;;;;;;;;20.82;53.91;101731.22;7288097;19;151925;-54
2022/05/26 03:04:25;;;;;;;;;;;;;;;20.83;54.11;101740.47;7292318;19;152787;-54
2022/05/26 03:07:06;;;;;;;;;;;;;;;20.84;54.20;101740.19;7290192;19;154405;-54
2022/05/26 03:09:44;;;;;;;;;;;;;;;20.81;54.21;101746.38;7291692;19;151944;-54
2022/05/26 03:12:24;;;;;;;;;;;;;;;20.81;54.23;101754.81;7296408;19;152912;-54
2022/05/26 03:14:51;;;;;;;;;;;;;;;20.84;53.87;101761.84;7289605;19;151921;-54
2022/05/26 03:17:17;;;;;;;;;;;;;;;20.81;54.14;101756.78;7291211;19;153191;-54
2022/05/26 03:19:49;;;;;;;;;;;;;;;20.82;54.04;101755.66;7289494;19;154060;-53
2022/05/26 03:22:17;;;;;;;;;;;;;;;20.81;54.44;101757.63;7288605;19;152764;-53
2022/05/26 03:24:43;;;;;;;;;;;;;;;20.79;53.92;101754.28;7291381;19;152650;-54
2022/05/26 03:27:10;;;;;;;;;;;;;;;20.78;54.03;101749.78;7290114;19;153497;-54
2022/05/26 03:29:44;;;;;;;;;;;;;;;20.77;54.29;101750.06;7290689;19;151917;-54
2022/05/26 03:32:11;;;;;;;;;;;;;;;20.76;54.30;101754.84;7290010;19;152988;-53
2022/05/26 03:42:53;;;;;;;;;;;;;;;20.71;54.38;101749.28;7290223;19;151937;-53
2022/05/26 03:45:22;;;;;;;;;;;;;;;20.72;54.47;101756.56;7290328;19;152687;-56
2022/05/26 03:47:49;;;;;;;;;;;;;;;20.71;54.44;101757.72;7288299;19;154417;-54
2022/05/26 03:50:17;;;;;;;;;;;;;;;20.72;54.23;101747.28;7289922;19;151801;-54
2022/05/26 03:52:43;;;;;;;;;;;;;;;20.70;54.31;101750.41;7288752;19;153367;-54
2022/05/26 03:55:10;;;;;;;;;;;;;;;20.69;54.30;101754.34;7288278;19;153370;-53
2022/05/26 03:57:36;;;;;;;;;;;;;;;20.69;54.20;101759.94;7297187;19;151844;-53
2022/05/26 04:00:04;;;;;;;;;;;;;;;20.70;54.11;101764.44;7286267;19;153419;-54
2022/05/26 04:02:34;;;;;;;;;;;;;;;20.72;54.09;101780.97;7290330;19;152038;-54
2022/05/26 04:05:00;;;;;;;;;;;;;;;20.69;54.13;101774.00;7289506;19;152775;-54
2022/05/26 04:07:27;;;;;;;;;;;;;;;20.70;54.40;101783.25;7288965;19;153607;-54
2022/05/26 04:09:53;;;;;;;;;;;;;;;20.71;54.00;101785.78;7289333;19;151769;-53
2022/05/26 04:12:20;;;;;;;;;;;;;;;20.68;54.01;101791.97;7288310;19;152755;-54
2022/05/26 04:14:47;;;;;;;;;;;;;;;20.68;54.25;101789.16;7288215;19;153843;-54
2022/05/26 04:17:14;;;;;;;;;;;;;;;20.69;54.07;101790.84;7296528;19;151932;-54
2022/05/26 04:19:48;;;;;;;;;;;;;;;20.67;54.36;101787.47;7286332;19;154494;-54
2022/05/26 04:22:15;;;;;;;;;;;;;;;20.66;54.06;101799.84;7287657;19;152296;-54
2022/05/26 04:24:42;;;;;;;;;;;;;;;20.65;54.46;101800.13;7290920;19;153361;-54
2022/05/26 04:27:09;;;;;;;;;;;;;;;20.65;54.09;101797.31;7286356;19;153542;-54
2022/05/26 04:29:43;;;;;;;;;;;;;;;20.73;53.83;101803.16;7289006;19;152111;-54
2022/05/26 04:32:10;;;;;;;;;;;;;;;20.66;53.83;101794.25;7288408;19;152809;-53
2022/05/26 04:34:37;;;;;;;;;;;;;;;20.64;54.04;101796.47;7287014;19;154393;-54
2022/05/26 04:37:04;;;;;;;;;;;;;;;20.62;54.63;101807.19;7289136;19;151486;-54
2022/05/26 04:39:46;;;;;;;;;;;;;;;20.64;54.49;101810.53;7294363;19;153783;-54
2022/05/26 04:42:15;;;;;;;;;;;;;;;20.63;54.13;101810.78;7288480;19;152024;-54
2022/05/26 04:44:43;;;;;;;;;;;;;;;20.61;54.55;101811.09;7286980;19;153209;-54
2022/05/26 04:47:11;;;;;;;;;;;;;;;20.58;54.56;101811.66;7287179;19;153361;-54
2022/05/26 04:49:45;;;;;;;;;;;;;;;20.59;54.25;101823.72;7283188;19;151640;-54
2022/05/26 04:52:17;;;;;;;;;;;;;;;20.59;54.03;101824.56;7287445;19;153208;-54
2022/05/26 04:54:44;;;;;;;;;;;;;;;20.58;54.27;101827.69;7287607;19;153333;-53
2022/05/26 04:57:11;;;;;;;;;;;;;;;20.59;54.13;101826.53;7287363;19;152193;-54
2022/05/26 04:59:42;;;;;;;;;;;;;;;20.56;54.74;101822.34;7288041;19;152668;-54
2022/05/26 05:02:15;;;;;;;;;;;;;;;20.55;54.71;101820.66;7294094;19;153348;-54
2022/05/26 05:04:44;;;;;;;;;;;;;;;20.53;54.31;101822.94;7288258;19;152555;-53
2022/05/26 05:07:10;;;;;;;;;;;;;;;20.54;54.74;101821.78;7286030;19;153269;-54
2022/05/26 05:09:48;;;;;;;;;;;;;;;20.57;54.48;101823.19;7287861;19;151937;-54
2022/05/26 05:12:17;;;;;;;;;;;;;;;20.54;54.74;101823.75;7288043;19;152809;-54
2022/05/26 05:14:45;;;;;;;;;;;;;;;20.56;54.30;101821.50;7286555;19;153372;-54
2022/05/26 05:17:12;;;;;;;;;;;;;;;20.62;54.42;101823.19;7287991;19;151905;-54
2022/05/26 05:19:47;;;;;;;;;;;;;;;20.66;54.36;101825.13;7287758;19;152686;-54
2022/05/26 05:22:18;;;;;;;;;;;;;;;20.67;54.40;101818.34;7286370;19;154149;-54
2022/05/26 05:24:48;;;;;;;;;;;;;;;20.69;53.82;101816.13;7294928;19;151628;-53
2022/05/26 05:27:19;;;;;;;;;;;;;;;20.64;54.38;101821.75;7286044;19;154300;-54
2022/05/26 05:29:53;;;;;;;;;;;;;;;20.68;54.20;101831.28;7287985;19;151985;-53
2022/05/26 05:32:22;;;;;;;;;;;;;;;20.70;54.04;101837.47;7286173;19;152810;-54
2022/05/26 05:34:55;;;;;;;;;;;;;;;20.58;54.44;101838.94;7286809;19;153770;-54
2022/05/26 05:37:22;;;;;;;;;;;;;;;20.59;54.79;101834.97;7287011;19;152101;-54
2022/05/26 05:39:49;;;;;;;;;;;;;;;20.60;54.39;101839.47;7287057;19;153327;-53
2022/05/26 05:42:16;;;;;;;;;;;;;;;20.56;54.39;101841.16;7286357;19;153276;-54
2022/05/26 05:44:43;;;;;;;;;;;;;;;20.58;54.62;101841.72;7284294;19;152904;-54
2022/05/26 05:47:10;;;;;;;;;;;;;;;20.60;54.97;101845.91;7293478;19;153364;-54
2022/05/26 05:49:50;;;;;;;;;;;;;;;20.55;54.24;101857.16;7287145;19;152135;-54
2022/05/26 05:52:22;;;;;;;;;;;;;;;20.56;54.77;101860.81;7284636;19;152815;-53
2022/05/26 05:54:49;;;;;;;;;;;;;;;20.52;54.40;101865.31;7285454;19;154702;-54
2022/05/26 05:57:16;;;;;;;;;;;;;;;20.62;54.51;101868.09;7286569;19;151698;-54
2022/05/26 05:59:47;;;;;;;;;;;;;;;20.54;54.58;101863.91;7285681;19;152763;-54
2022/05/26 06:02:14;;;;;;;;;;;;;;;20.55;54.60;101862.78;7283819;19;152062;-54
2022/05/26 06:04:59;;;;;;;;;;;;;;;20.68;54.42;101867.78;7286542;19;151715;-54
2022/05/26 06:07:26;;;;;;;;;;;;;;;20.64;54.40;101871.44;7285726;19;153124;-54
2022/05/26 06:09:53;;;;;;;;;;;;;;;20.55;54.30;101875.97;7292829;19;151892;-53
2022/05/26 06:12:21;;;;;;;;;;;;;;;20.51;54.69;101872.91;7285910;19;152845;-53
2022/05/26 06:14:49;;;;;;;;;;;;;;;20.51;54.76;101872.06;7284952;19;155167;-54
2022/05/26 06:17:16;;;;;;;;;;;;;;;20.56;54.97;101877.66;7285564;19;152273;-53
2022/05/26 06:19:47;;;;;;;;;;;;;;;20.57;54.58;101879.34;7286325;19;152565;-53
2022/05/26 06:22:16;;;;;;;;;;;;;;;20.60;53.96;101885.22;7284025;19;154227;-54
2022/05/26 06:24:43;;;;;;;;;;;;;;;20.19;52.54;101883.63;7285298;19;152069;-53
2022/05/26 06:29:57;;;;;;;;;;;;;;;20.32;53.12;101877.44;7292018;19;153645;-54
2022/05/26 06:37:56;;;;;;;;;;;;;;;20.56;52.79;101886.94;7283757;19;152190;-54
2022/05/26 06:40:23;;;;;;;;;;;;;;;20.62;52.24;101890.56;7284793;19;152519;-54
2022/05/26 06:42:50;;;;;;;;;;;;;;;20.67;52.38;101896.97;7283050;19;153457;-54
2022/05/26 06:45:20;;;;;;;;;;;;;;;20.74;52.23;101896.69;7284741;19;151787;-54
2022/05/26 06:47:47;;;;;;;;;;;;;;;20.79;52.03;101899.50;7281910;19;152562;-55
2022/05/26 06:50:14;;;;;;;;;;;;;;;20.85;51.68;101907.59;7280515;19;154239;-54
2022/05/26 06:52:41;;;;;;;;;;;;;;;20.93;51.61;101903.38;7289303;19;151907;-54
2022/05/26 06:55:09;;;;;;;;;;;;;;;21.00;51.70;101905.84;7283505;19;154260;-55
2022/05/26 06:57:37;;;;;;;;;;;;;;;21.06;51.21;101901.88;7284108;19;152059;-55
2022/05/26 07:00:05;;;;;;;;;;;;;;;21.12;51.09;101898.75;7283758;19;153352;-54
2022/05/26 07:02:32;;;;;;;;;;;;;;;21.18;51.31;101906.06;7281913;19;153129;-54
2022/05/26 07:04:59;;;;;;;;;;;;;;;21.26;50.78;101898.97;7284014;19;151997;-54
2022/05/26 07:07:26;;;;;;;;;;;;;;;21.32;50.98;101905.41;7283623;19;152501;-54
2022/05/26 07:09:54;;;;;;;;;;;;;;;21.39;50.46;101905.94;7280652;19;153914;-54
2022/05/26 07:12:22;;;;;;;;;;;;;;;21.43;50.37;101902.28;7283781;19;152042;-54
2022/05/26 07:14:48;;;;;;;;;;;;;;;21.49;50.26;101911.47;7294909;19;152570;-54
2022/05/26 07:17:15;;;;;;;;;;;;;;;21.55;50.34;101899.91;7289590;19;151868;-54
2022/05/26 07:19:50;;;;;;;;;;;;;;;21.57;49.94;101899.63;7290977;19;152719;-54
2022/05/26 07:22:17;;;;;;;;;;;;;;;21.66;49.48;101901.53;7288432;19;153355;-55
2022/05/26 07:24:45;;;;;;;;;;;;;;;21.36;47.45;101903.69;7289812;19;152102;-54
2022/05/26 07:27:11;;;;;;;;;;;;;;;21.52;48.75;101906.13;7290227;19;153350;-53
2022/05/26 07:29:44;;;;;;;;;;;;;;;21.59;48.95;101908.59;7289363;19;154358;-55
2022/05/26 07:32:11;;;;;;;;;;;;;;;21.64;48.75;101911.38;7290521;19;151837;-54
2022/05/26 07:34:38;;;;;;;;;;;;;;;21.68;48.42;101915.28;7287125;19;153807;-54
2022/05/26 07:42:36;;;;;;;;;;;;;;;21.75;48.67;101907.38;7288347;19;154118;-54
2022/05/26 07:45:04;;;;;;;;;;;;;;;21.77;48.50;101910.72;7288196;19;152092;-54
2022/05/26 07:47:31;;;;;;;;;;;;;;;21.78;48.57;101914.38;7289374;19;152585;-54
2022/05/26 07:49:57;;;;;;;;;;;;;;;21.79;48.07;101911.28;7289153;19;153880;-53
2022/05/26 07:52:25;;;;;;;;;;;;;;;21.80;48.49;101904.53;7289578;19;151873;-53
2022/05/26 07:54:52;;;;;;;;;;;;;;;21.80;48.41;101910.16;7285043;19;152691;-54
2022/05/26 07:57:23;;;;;;;;;;;;;;;21.81;48.50;101914.63;7287617;19;153233;-53
2022/05/26 07:59:50;;;;;;;;;;;;;;;21.81;48.03;101910.97;7296353;19;152058;-54
2022/05/26 08:02:18;;;;;;;;;;;;;;;21.84;48.27;101907.59;7287128;19;154243;-54
2022/05/26 08:04:46;;;;;;;;;;;;;;;21.82;48.17;101918.28;7289728;19;151617;-54
2022/05/26 08:07:13;;;;;;;;;;;;;;;21.82;48.30;101915.47;7289751;19;152446;-54
2022/05/26 08:09:43;;;;;;;;;;;;;;;21.81;47.90;101920.25;7288322;19;153152;-54
2022/05/26 08:12:11;;;;;;;;;;;;;;;21.83;47.95;101925.59;7289889;19;151945;-53
2022/05/26 08:14:39;;;;;;;;;;;;;;;21.85;48.03;101924.16;7286785;19;153618;-54
2022/05/26 08:17:06;;;;;;;;;;;;;;;21.86;47.68;101930.63;7287846;19;154433;-55
2022/05/26 08:19:46;;;;;;;;;;;;;;;21.85;47.67;101935.41;7296152;19;152172;-54
2022/05/26 08:22:17;;;;;;;;;;;;;;;21.85;47.66;101943.84;7287962;19;153826;-54
2022/05/26 08:24:54;;;;;;;;;;;;;;;21.83;47.89;101945.28;7288134;19;152031;-54
2022/05/26 08:27:21;;;;;;;;;;;;;;;21.84;48.04;101944.16;7286613;19;152655;-54
2022/05/26 08:29:48;;;;;;;;;;;;;;;21.83;48.13;101951.75;7287840;19;153597;-55
2022/05/26 08:32:16;;;;;;;;;;;;;;;21.84;48.05;101949.78;7287655;19;151542;-54
2022/05/26 08:34:43;;;;;;;;;;;;;;;21.83;47.83;101948.09;7284589;19;153491;-54
2022/05/26 08:37:17;;;;;;;;;;;;;;;21.81;48.04;101956.81;7286461;19;153642;-53
2022/05/26 08:39:48;;;;;;;;;;;;;;;21.81;47.74;101955.97;7289334;19;151818;-54
2022/05/26 08:42:21;;;;;;;;;;;;;;;21.79;48.01;101947.84;7294917;19;152921;-54
2022/05/26 08:44:49;;;;;;;;;;;;;;;21.79;47.79;101944.19;7288093;19;151841;-54
2022/05/26 08:47:18;;;;;;;;;;;;;;;21.77;48.08;101961.34;7286323;19;152585;-54
2022/05/26 08:49:51;;;;;;;;;;;;;;;21.75;47.66;101963.63;7285967;19;153567;-54
2022/05/26 08:52:32;;;;;;;;;;;;;;;21.75;48.08;101963.63;7288202;19;151984;-55
2022/05/26 08:55:11;;;;;;;;;;;;;;;21.72;47.92;101962.22;7285814;19;152667;-53
2022/05/26 08:57:40;;;;;;;;;;;;;;;21.70;47.93;101961.69;7285895;19;154013;-55
2022/05/26 09:00:11;;;;;;;;;;;;;;;21.69;47.84;101967.59;7287189;19;152208;-54
2022/05/26 09:02:38;;;;;;;;;;;;;;;21.69;48.00;101970.41;7286820;19;152530;-54
2022/05/26 09:05:07;;;;;;;;;;;;;;;21.67;48.17;101970.69;7294367;19;153912;-54
2022/05/26 09:13:12;;;;;;;;;;;;;;;21.64;48.32;101973.25;7287376;19;151850;-55
2022/05/26 09:15:39;;;;;;;;;;;;;;;21.61;47.99;101979.47;7286872;19;152645;-54
2022/05/26 09:18:12;;;;;;;;;;;;;;;21.59;48.34;101984.53;7285835;19;154526;-54
2022/05/26 09:20:40;;;;;;;;;;;;;;;21.56;48.52;101977.53;7287020;19;151942;-54
2022/05/26 09:23:27;;;;;;;;;;;;;;;21.53;48.13;101992.16;7287991;19;152622;-54
2022/05/26 09:25:53;;;;;;;;;;;;;;;21.52;48.27;101990.50;7284901;19;153972;-54
2022/05/26 09:28:31;;;;;;;;;;;;;;;21.49;48.70;101982.63;7294530;19;151971;-55
2022/05/26 09:31:18;;;;;;;;;;;;;;;21.51;48.31;101973.91;7287092;19;153297;-53
2022/05/26 09:33:59;;;;;;;;;;;;;;;21.49;48.54;101981.78;7266860;19;152925;-54
2022/05/26 09:36:31;;;;;;;;;;;;;;;21.49;48.75;101976.16;7272515;19;153270;-54
2022/05/26 09:38:58;;;;;;;;;;;;;;;21.49;48.58;101985.44;7285055;19;154109;-54
2022/05/26 09:41:25;;;;;;;;;;;;;;;21.47;48.75;101975.63;7284360;19;152010;-54
2022/05/26 09:43:58;;;;;;;;;;;;;;;21.47;48.92;101981.25;7286868;19;153142;-54
2022/05/26 09:46:26;;;;;;;;;;;;;;;21.44;48.84;101977.03;7284323;19;154151;-54
2022/05/26 09:48:59;;;;;;;;;;;;;;;21.43;48.83;101986.63;7284639;19;151982;-55
2022/05/26 09:51:30;;;;;;;;;;;;;;;21.41;49.04;101994.47;7290737;19;152644;-54
2022/05/26 09:53:59;;;;;;;;;;;;;;;21.42;49.10;101984.09;7281023;19;153228;-54
2022/05/26 09:56:31;;;;;;;;;;;;;;;21.41;49.11;101996.44;7285286;19;151847;-54
2022/05/26 09:58:59;;;;;;;;;;;;;;;21.37;48.90;102000.97;7283965;19;153375;-54
2022/05/26 10:01:29;;;;;;;;;;;;;;;21.36;49.20;101991.69;7279569;19;152279;-54
2022/05/26 10:03:58;;;;;;;;;;;;;;;21.33;49.42;101992.28;7282175;19;152606;-53
2022/05/26 10:06:27;;;;;;;;;;;;;;;21.35;49.14;101981.56;7284315;19;152995;-54
2022/05/26 10:08:59;;;;;;;;;;;;;;;21.33;49.35;101986.66;7282968;19;151853;-54
2022/05/26 10:11:35;;;;;;;;;;;;;;;21.40;48.71;101989.13;7283798;19;154964;-55
2022/05/26 10:14:21;;;;;;;;;;;;;;;21.32;48.99;101984.97;7288232;19;154551;-54
2022/05/26 10:16:55;;;;;;;;;;;;;;;21.29;49.16;101975.16;7284634;19;153846;-54
2022/05/26 10:19:33;;;;;;;;;;;;;;;21.27;49.09;101963.34;7281137;19;153720;-54
2022/05/26 10:22:28;;;;;;;;;;;;;;;21.27;49.36;101959.69;7284769;19;151810;-54
2022/05/26 10:24:56;;;;;;;;;;;;;;;21.25;49.33;101964.78;7283944;19;153134;-54
2022/05/26 10:27:26;;;;;;;;;;;;;;;21.29;49.16;101966.72;7281369;19;152976;-54
2022/05/26 10:30:24;;;;;;;;;;;;;;;21.29;49.62;101979.94;7283685;19;152138;-54
2022/05/26 10:33:09;;;;;;;;;;;;;;;21.28;49.21;101976.28;7282685;19;152724;-54
2022/05/26 10:35:41;;;;;;;;;;;;;;;21.26;49.48;101967.28;7285932;19;155265;-54
2022/05/26 10:38:18;;;;;;;;;;;;;;;21.26;49.74;101963.63;7278692;19;152719;-54
2022/05/26 10:40:51;;;;;;;;;;;;;;;21.27;49.47;101962.50;7283013;19;154765;-54
2022/05/26 10:43:23;;;;;;;;;;;;;;;21.26;49.51;101966.44;7283287;19;151797;-55
2022/05/26 10:45:52;;;;;;;;;;;;;;;21.26;49.57;101967.28;7282066;19;152556;-54
2022/05/26 10:48:28;;;;;;;;;;;;;;;21.25;49.52;101953.53;7285857;19;153310;-54
2022/05/26 10:51:10;;;;;;;;;;;;;;;21.24;49.50;101960.28;7290579;19;152228;-55
2022/05/26 10:53:41;;;;;;;;;;;;;;;21.24;49.60;101960.28;7290390;19;153313;-54
2022/05/26 10:56:27;;;;;;;;;;;;;;;21.22;49.74;101960.56;7284288;19;155877;-54
2022/05/26 10:59:07;;;;;;;;;;;;;;;21.21;49.60;101958.06;7297721;19;152224;-54
2022/05/26 11:01:46;;;;;;;;;;;;;;;21.22;49.57;101957.75;7286255;19;154121;-54
2022/05/26 11:04:22;;;;;;;;;;;;;;;21.18;49.53;101953.84;7289819;19;152074;-54
2022/05/26 11:06:51;;;;;;;;;;;;;;;21.20;49.49;101973.22;7288742;19;152892;-55
2022/05/26 11:09:22;;;;;;;;;;;;;;;21.24;49.28;101957.47;7286630;19;154075;-54
2022/05/26 11:11:51;;;;;;;;;;;;;;;21.18;49.82;101956.66;7283391;19;152197;-53
2022/05/26 11:17:49;;;;;;;;;;;;;;;21.17;49.88;101945.69;7286360;19;153123;-55
2022/05/26 11:20:44;;;;;;;;;;;;;;;21.22;49.50;101948.47;7284781;19;152100;-53
2022/05/26 11:23:15;;;;;;;;;;;;;;;21.19;49.54;101949.91;7290304;19;153046;-54
2022/05/26 11:25:48;;;;;;;;;;;;;;;21.20;49.46;101954.41;7288102;19;152058;-54
2022/05/26 11:28:21;;;;;;;;;;;;;;;21.18;49.67;101948.22;7288869;19;153460;-54
2022/05/26 11:36:46;;;;;;;;;;;;;;;21.16;50.00;101936.44;7287836;19;153025;-55
2022/05/26 11:39:40;;;;;;;;;;;;;;;21.18;49.71;101939.78;7284416;19;153211;-54
2022/05/26 11:42:25;;;;;;;;;;;;;;;21.16;49.59;101932.78;7288473;19;152101;-54
2022/05/26 11:44:56;;;;;;;;;;;;;;;21.09;50.10;101941.47;7288675;19;153326;-54
2022/05/26 11:47:23;;;;;;;;;;;;;;;21.16;49.73;101944.88;7295085;19;153252;-54
2022/05/26 11:49:52;;;;;;;;;;;;;;;21.15;49.94;101943.19;7288120;19;153380;-54
2022/05/26 11:52:27;;;;;;;;;;;;;;;21.17;49.56;101946.53;7287870;19;153726;-53
2022/05/26 11:54:59;;;;;;;;;;;;;;;21.14;49.91;101940.66;7287962;19;151984;-54
2022/05/26 11:57:28;;;;;;;;;;;;;;;21.13;49.74;101938.97;7288330;19;152661;-54
2022/05/26 12:00:18;;;;;;;;;;;;;;;21.14;50.30;101935.88;7284746;19;153743;-54
2022/05/26 12:03:13;;;;;;;;;;;;;;;21.09;49.93;101943.44;7287954;19;151489;-54
2022/05/26 12:05:41;;;;;;;;;;;;;;;21.06;50.31;101932.78;7288101;19;152623;-54
2022/05/26 12:08:23;;;;;;;;;;;;;;;21.05;50.42;101937.56;7286729;19;154248;-54
2022/05/26 12:10:52;;;;;;;;;;;;;;;21.03;50.04;101939.81;7296074;19;152185;-54
2022/05/26 12:13:27;;;;;;;;;;;;;;;21.02;50.25;101931.69;7287079;19;153483;-54
2022/05/26 12:16:03;;;;;;;;;;;;;;;21.00;50.39;101928.31;7283904;19;152450;-54
2022/05/26 12:18:36;;;;;;;;;;;;;;;21.00;50.66;101939.56;7286967;19;152970;-55
2022/05/26 12:21:11;;;;;;;;;;;;;;;21.01;50.74;101932.81;7285121;19;153587;-54
2022/05/26 12:23:38;;;;;;;;;;;;;;;20.98;50.51;101931.44;7286210;19;151944;-54
2022/05/26 12:26:23;;;;;;;;;;;;;;;21.02;50.55;101928.88;7288643;19;152665;-54
2022/05/26 12:28:49;;;;;;;;;;;;;;;21.00;50.21;101933.94;7286569;19;153777;-54
2022/05/26 12:31:16;;;;;;;;;;;;;;;20.98;50.66;101925.81;7287685;19;151681;-55
2022/05/26 12:33:52;;;;;;;;;;;;;;;20.97;50.49;101928.91;7291526;19;153799;-54
2022/05/26 12:36:22;;;;;;;;;;;;;;;21.06;50.61;101930.84;7285678;19;152097;-54
2022/05/26 12:38:55;;;;;;;;;;;;;;;21.04;50.50;101927.44;7282367;19;153093;-54
2022/05/26 12:41:51;;;;;;;;;;;;;;;21.01;50.31;101928.03;7283443;19;154468;-55
2022/05/26 12:44:56;;;;;;;;;;;;;;;20.98;50.81;101939.03;7285528;19;152349;-54
2022/05/26 12:47:36;;;;;;;;;;;;;;;21.04;50.31;101929.41;7286778;19;153434;-53
2022/05/26 12:50:03;;;;;;;;;;;;;;;21.06;50.69;101933.63;7285396;19;154172;-53
2022/05/26 12:52:35;;;;;;;;;;;;;;;20.98;50.84;101937.06;7287551;19;151938;-54
2022/05/26 12:55:12;;;;;;;;;;;;;;;20.96;50.62;101927.22;7290949;19;154083;-54
2022/05/26 12:57:42;;;;;;;;;;;;;;;20.95;50.41;101931.16;7286768;19;151924;-54
2022/05/26 13:00:30;;;;;;;;;;;;;;;20.89;50.65;101930.34;7285363;19;154120;-54
2022/05/26 13:02:59;;;;;;;;;;;;;;;20.90;51.20;101936.78;7284959;19;153348;-54
2022/05/26 13:05:27;;;;;;;;;;;;;;;20.96;50.63;101930.03;7285214;19;151834;-54
2022/05/26 13:07:55;;;;;;;;;;;;;;;20.91;50.61;101930.03;7284241;19;152276;-54
2022/05/26 13:10:27;;;;;;;;;;;;;;;20.90;50.64;101925.53;7282811;19;153236;-54
2022/05/26 13:12:54;;;;;;;;;;;;;;;20.89;50.74;101921.91;7284995;19;152554;-54
2022/05/26 13:15:26;;;;;;;;;;;;;;;20.88;50.62;101913.78;7284569;19;152842;-54
2022/05/26 13:17:53;;;;;;;;;;;;;;;20.87;51.05;101910.13;7292205;19;153271;-54
2022/05/26 13:20:22;;;;;;;;;;;;;;;20.89;51.27;101910.69;7284440;19;153066;-54
2022/05/26 13:23:09;;;;;;;;;;;;;;;20.88;50.75;101917.44;7284149;19;155023;-55
2022/05/26 13:25:36;;;;;;;;;;;;;;;20.89;51.18;101923.88;7286728;19;152185;-54
2022/05/26 13:28:05;;;;;;;;;;;;;;;20.88;50.74;101928.66;7285983;19;153430;-53
2022/05/26 13:33:40;;;;;;;;;;;;;;;20.87;51.45;101924.16;7286064;19;151713;-54